Time;durP1;ratioP1;P1;durP2;ratioP2;P2;SDS_P1;SDS_P2;PMS_P1;PMS_P2;Temp;Humidity;BMP_temperature;BMP_pressure;BME280_temperature;BME280_humidity;BME280_pressure;Samples;Min_cycle;Max_cycle;Signal;HPM_P1;HPM_P2
2022/01/02 00:00:06;;;;;;;2.83;1.17;;;25.90;84.60;;;;;;5071420;28;20028;-57
2022/01/02 00:02:35;;;;;;;2.38;0.75;;;25.90;84.80;;;;;;5072602;28;20036;-59
2022/01/02 00:05:12;;;;;;;2.40;1.02;;;25.80;85.20;;;;;;5072512;28;20035;-60
2022/01/02 00:07:46;;;;;;;0.82;0.50;;;25.80;85.50;;;;;;5072781;28;20035;-53
2022/01/02 00:10:14;;;;;;;2.17;0.75;;;25.80;85.20;;;;;;5072390;28;20029;-50
2022/01/02 00:12:49;;;;;;;1.60;0.60;;;25.80;85.80;;;;;;5072584;28;20035;-49
2022/01/02 00:15:20;;;;;;;2.03;1.08;;;25.80;85.40;;;;;;5071251;28;20054;-58
2022/01/02 00:17:51;;;;;;;4.20;1.17;;;25.80;85.40;;;;;;5072313;28;20020;-59
2022/01/02 00:20:32;;;;;;;6.47;1.15;;;25.90;85.10;;;;;;5072620;28;20390;-56
2022/01/02 00:23:07;;;;;;;3.72;1.00;;;25.90;85.40;;;;;;5072701;28;20025;-54
2022/01/02 00:25:41;;;;;;;3.15;0.73;;;25.90;85.20;;;;;;5072542;28;20116;-61
2022/01/02 00:28:10;;;;;;;1.73;0.70;;;25.90;85.50;;;;;;5072437;28;20410;-58
2022/01/02 00:30:39;;;;;;;1.75;0.68;;;26.00;85.30;;;;;;5072550;28;20035;-60
2022/01/02 00:33:08;;;;;;;2.80;0.82;;;25.90;85.00;;;;;;5072340;28;20052;-58
2022/01/02 00:35:36;;;;;;;2.55;0.93;;;26.00;84.90;;;;;;5072353;28;20111;-48
2022/01/02 00:38:05;;;;;;;2.88;1.10;;;25.90;84.90;;;;;;5072535;28;20546;-60
2022/01/02 00:40:44;;;;;;;1.83;0.65;;;26.00;85.10;;;;;;5072933;28;20033;-57
2022/01/02 00:43:18;;;;;;;1.02;0.60;;;25.90;85.50;;;;;;5076326;28;20055;-62
2022/01/02 00:45:52;;;;;;;3.38;1.20;;;26.00;85.10;;;;;;5075982;28;20052;-60
2022/01/02 00:48:34;;;;;;;3.38;0.88;;;26.10;85.10;;;;;;5075103;28;20031;-58
2022/01/02 00:51:14;;;;;;;2.58;0.80;;;26.10;85.00;;;;;;5076151;28;20055;-55
2022/01/02 00:53:46;;;;;;;2.20;0.80;;;26.10;85.00;;;;;;5075186;28;20098;-54
2022/01/02 00:56:18;;;;;;;3.58;0.98;;;26.20;84.70;;;;;;5075801;28;20028;-49
2022/01/02 00:58:54;;;;;;;1.73;0.70;;;26.30;84.60;;;;;;5075698;28;20502;-51
2022/01/02 01:01:29;;;;;;;2.72;0.90;;;26.30;84.30;;;;;;5075815;28;20036;-53
2022/01/02 01:03:58;;;;;;;1.95;0.75;;;26.40;84.00;;;;;;5075577;28;20066;-51
2022/01/02 01:06:30;;;;;;;2.83;1.40;;;26.30;84.00;;;;;;5074244;28;20028;-59
2022/01/02 01:09:00;;;;;;;4.20;0.90;;;26.40;84.00;;;;;;5075858;28;20025;-60
2022/01/02 01:11:29;;;;;;;2.55;0.85;;;26.30;84.40;;;;;;5075864;28;20028;-58
2022/01/02 01:13:58;;;;;;;2.55;0.90;;;26.30;84.40;;;;;;5075294;28;20036;-58
2022/01/02 01:16:26;;;;;;;1.88;0.70;;;26.40;84.40;;;;;;5075115;28;20039;-57
2022/01/02 01:18:54;;;;;;;4.53;1.02;;;26.40;84.10;;;;;;5075657;28;20064;-58
2022/01/02 01:21:21;;;;;;;4.40;0.90;;;26.40;84.40;;;;;;5075586;28;20032;-60
2022/01/02 01:23:50;;;;;;;3.40;0.77;;;26.50;84.00;;;;;;5075031;28;20040;-59
2022/01/02 01:26:17;;;;;;;3.97;1.02;;;26.50;84.30;;;;;;5075472;28;20021;-56
2022/01/02 01:28:45;;;;;;;3.40;0.95;;;26.50;84.50;;;;;;5075486;28;20024;-57
2022/01/02 01:31:12;;;;;;;4.57;1.02;;;26.60;84.30;;;;;;5075450;28;20021;-55
2022/01/02 01:33:40;;;;;;;6.05;1.55;;;26.50;84.10;;;;;;5075273;28;20103;-59
2022/01/02 01:36:07;;;;;;;2.80;0.90;;;26.60;84.20;;;;;;5074639;28;20454;-57
2022/01/02 01:38:34;;;;;;;3.85;1.13;;;26.60;83.60;;;;;;5074111;28;20043;-55
2022/01/02 01:41:38;;;;;;;2.88;1.02;;;26.60;83.90;;;;;;5075142;28;20024;-58
2022/01/02 01:46:44;;;;;;;5.20;1.33;;;26.70;84.00;;;;;;5069408;28;20025;-58
2022/01/02 01:49:20;;;;;;;2.05;0.73;;;26.70;84.00;;;;;;5074611;28;20027;-57
2022/01/02 01:51:48;;;;;;;3.42;1.30;;;26.80;83.60;;;;;;5074744;28;20379;-58
2022/01/02 01:54:16;;;;;;;5.90;1.30;;;26.80;83.60;;;;;;5074683;28;20098;-59
2022/01/02 01:56:45;;;;;;;4.85;1.45;;;26.80;83.20;;;;;;5074946;28;20483;-58
2022/01/02 01:59:15;;;;;;;7.68;1.58;;;26.80;82.90;;;;;;5075356;28;20056;-58
2022/01/02 02:01:43;;;;;;;3.70;1.40;;;26.90;82.80;;;;;;5073870;28;20036;-59
2022/01/02 02:04:13;;;;;;;4.60;1.05;;;26.90;82.70;;;;;;5074737;28;20115;-54
2022/01/02 02:06:41;;;;;;;6.32;1.63;;;26.90;83.00;;;;;;5074830;28;20126;-54
2022/01/02 02:09:18;;;;;;;2.05;0.80;;;26.90;82.80;;;;;;5075339;28;20382;-58
2022/01/02 02:11:46;;;;;;;4.03;1.35;;;26.90;82.80;;;;;;5075468;28;20029;-60
2022/01/02 02:14:14;;;;;;;4.97;1.45;;;26.90;82.70;;;;;;5074151;28;20082;-56
2022/01/02 02:16:42;;;;;;;5.80;1.38;;;27.00;82.80;;;;;;5074141;28;20029;-58
2022/01/02 02:19:09;;;;;;;4.85;1.60;;;27.00;82.70;;;;;;5075228;28;20028;-56
2022/01/02 02:21:43;;;;;;;4.35;1.55;;;27.10;82.70;;;;;;5075486;28;20082;-58
2022/01/02 02:24:11;;;;;;;11.52;1.70;;;27.10;82.30;;;;;;5073777;28;20021;-57
2022/01/02 02:26:39;;;;;;;4.50;1.13;;;27.10;82.20;;;;;;5074156;28;20028;-51
2022/01/02 02:29:06;;;;;;;5.35;1.60;;;27.10;83.30;;;;;;5072669;28;20028;-62
2022/01/02 02:31:34;;;;;;;2.60;1.00;;;27.10;82.40;;;;;;5073043;28;20029;-58
2022/01/02 02:34:01;;;;;;;3.65;1.10;;;27.10;82.50;;;;;;5074072;28;20029;-56
2022/01/02 02:36:29;;;;;;;2.83;0.90;;;27.10;82.70;;;;;;5073765;28;20099;-58
2022/01/02 02:38:56;;;;;;;4.05;1.50;;;27.10;82.60;;;;;;5073668;28;20025;-59
2022/01/02 02:41:23;;;;;;;3.17;0.70;;;27.20;82.90;;;;;;5073871;28;20028;-59
2022/01/02 02:44:03;;;;;;;2.70;1.27;;;27.20;82.70;;;;;;5073758;28;20029;-58
2022/01/02 02:49:16;;;;;;;4.40;1.55;;;27.10;82.60;;;;;;5074134;28;20028;-57
2022/01/02 02:54:25;;;;;;;2.95;1.10;;;27.20;82.80;;;;;;5073171;28;20090;-58
2022/01/02 02:57:00;;;;;;;2.90;1.00;;;27.30;82.60;;;;;;5073633;28;20364;-52
2022/01/02 02:59:31;;;;;;;4.28;1.20;;;27.30;82.10;;;;;;5073681;28;20032;-51
2022/01/02 03:01:59;;;;;;;4.10;1.23;;;27.20;82.90;;;;;;5073419;28;20036;-48
2022/01/02 03:04:30;;;;;;;3.92;1.13;;;27.20;82.70;;;;;;5072265;28;20564;-59
2022/01/02 03:07:12;;;;;;;3.80;1.30;;;27.20;82.50;;;;;;5072860;28;20064;-56
2022/01/02 03:09:51;;;;;;;6.82;2.05;;;27.30;82.90;;;;;;5073827;28;20047;-62
2022/01/02 03:13:04;;;;;;;6.38;1.65;;;27.30;82.50;;;;;;5056025;28;20048;-61
2022/01/02 03:15:31;;;;;;;2.17;0.95;;;27.30;82.20;;;;;;5073161;28;20039;-58
2022/01/02 03:17:59;;;;;;;5.25;1.65;;;27.30;82.60;;;;;;5073419;28;20075;-58
2022/01/02 03:20:27;;;;;;;5.70;1.58;;;27.30;82.70;;;;;;5073621;28;20060;-56
2022/01/02 03:22:54;;;;;;;3.35;1.38;;;27.40;82.60;;;;;;5072070;28;20016;-55
2022/01/02 03:25:22;;;;;;;5.93;1.60;;;27.40;82.70;;;;;;5072884;28;20081;-59
2022/01/02 03:27:49;;;;;;;6.22;1.80;;;27.40;82.50;;;;;;5073099;28;20037;-57
2022/01/02 03:30:16;;;;;;;4.45;1.35;;;27.40;82.60;;;;;;5071366;28;20028;-54
2022/01/02 03:32:44;;;;;;;6.10;1.60;;;27.40;82.40;;;;;;5072945;28;20024;-57
2022/01/02 03:35:11;;;;;;;5.32;1.42;;;27.40;82.40;;;;;;5072986;28;20056;-57
2022/01/02 03:37:39;;;;;;;7.47;1.58;;;27.40;82.70;;;;;;5072990;28;20118;-55
2022/01/02 03:40:09;;;;;;;7.68;1.52;;;27.40;82.50;;;;;;5073072;28;20056;-58
2022/01/02 03:42:37;;;;;;;6.82;1.67;;;27.50;82.60;;;;;;5072876;28;20055;-57
2022/01/02 03:45:06;;;;;;;4.32;1.38;;;27.50;82.20;;;;;;5072630;28;20025;-58
2022/01/02 03:47:33;;;;;;;4.32;1.40;;;27.40;82.30;;;;;;5072646;28;20476;-60
2022/01/02 03:50:01;;;;;;;4.57;1.60;;;27.40;82.60;;;;;;5072541;28;20432;-60
2022/01/02 03:52:30;;;;;;;4.15;1.33;;;27.60;83.10;;;;;;5072675;28;20024;-56
2022/01/02 03:54:58;;;;;;;7.57;1.60;;;27.50;82.20;;;;;;5072361;28;20515;-59
2022/01/02 03:57:26;;;;;;;4.15;1.25;;;27.60;82.30;;;;;;5072752;28;20150;-60
2022/01/02 03:59:53;;;;;;;6.47;1.42;;;27.60;81.90;;;;;;5072708;28;20531;-58
2022/01/02 04:02:21;;;;;;;9.50;1.65;;;27.60;82.20;;;;;;5072832;28;20039;-57
2022/01/02 04:04:48;;;;;;;5.13;1.67;;;27.60;81.70;;;;;;5072941;28;20052;-61
2022/01/02 04:07:15;;;;;;;6.88;2.05;;;27.70;82.10;;;;;;5072644;28;20096;-57
2022/01/02 04:09:43;;;;;;;3.70;1.38;;;27.60;81.80;;;;;;5072739;28;20387;-62
2022/01/02 04:12:10;;;;;;;8.10;2.05;;;27.60;81.80;;;;;;5072461;28;20032;-57
2022/01/02 04:14:38;;;;;;;5.28;1.33;;;27.60;82.20;;;;;;5071396;28;20036;-60
2022/01/02 04:17:05;;;;;;;3.35;1.63;;;27.60;82.20;;;;;;5076707;28;20020;-60
2022/01/02 04:19:33;;;;;;;5.80;1.40;;;27.50;82.50;;;;;;5076809;28;20378;-60
2022/01/02 04:22:01;;;;;;;3.78;1.50;;;27.50;82.50;;;;;;5076351;28;20463;-56
2022/01/02 04:24:28;;;;;;;11.90;1.92;;;27.50;82.60;;;;;;5075204;28;20020;-59
2022/01/02 04:26:56;;;;;;;4.10;1.10;;;27.60;82.30;;;;;;5075302;28;20398;-57
2022/01/02 04:29:23;;;;;;;6.10;1.50;;;27.50;82.60;;;;;;5076589;28;20024;-58
2022/01/02 04:31:51;;;;;;;7.18;1.58;;;27.50;82.60;;;;;;5076683;28;20554;-54
2022/01/02 04:34:21;;;;;;;3.83;1.60;;;27.50;82.60;;;;;;5076451;28;20094;-55
2022/01/02 04:36:48;;;;;;;6.65;1.70;;;27.50;82.60;;;;;;5075187;28;20471;-54
2022/01/02 04:39:17;;;;;;;4.93;1.40;;;27.60;82.80;;;;;;5076416;28;20443;-58
2022/01/02 04:41:44;;;;;;;3.53;1.35;;;27.60;82.50;;;;;;5076041;28;20074;-53
2022/01/02 04:44:12;;;;;;;6.10;1.35;;;27.60;82.50;;;;;;5075934;28;20028;-60
2022/01/02 04:46:39;;;;;;;3.72;1.60;;;27.60;82.40;;;;;;5075919;28;20027;-59
2022/01/02 04:49:07;;;;;;;4.25;1.80;;;27.50;82.70;;;;;;5076027;28;20089;-60
2022/01/02 04:51:34;;;;;;;3.13;1.20;;;27.50;82.70;;;;;;5076167;28;20024;-60
2022/01/02 04:54:01;;;;;;;3.50;1.25;;;27.50;82.70;;;;;;5075650;28;20056;-58
2022/01/02 04:56:29;;;;;;;4.50;1.23;;;27.50;82.60;;;;;;5076341;28;20107;-60
2022/01/02 04:58:56;;;;;;;5.03;1.48;;;27.50;82.80;;;;;;5076129;28;20370;-57
2022/01/02 05:01:23;;;;;;;7.30;1.95;;;27.50;83.00;;;;;;5076015;28;20032;-58
2022/01/02 05:03:51;;;;;;;3.28;1.13;;;27.50;83.00;;;;;;5075864;28;20020;-56
2022/01/02 05:06:19;;;;;;;5.30;1.80;;;27.50;82.90;;;;;;5074524;28;20024;-59
2022/01/02 05:08:46;;;;;;;6.13;1.50;;;27.50;83.10;;;;;;5058022;28;20033;-54
2022/01/02 05:11:14;;;;;;;5.45;1.50;;;27.50;83.00;;;;;;5075645;28;20035;-60
2022/01/02 05:13:42;;;;;;;7.50;2.10;;;27.50;83.10;;;;;;5075583;28;20033;-58
2022/01/02 05:16:09;;;;;;;5.32;1.83;;;27.60;82.90;;;;;;5075267;28;20085;-54
2022/01/02 05:18:37;;;;;;;5.55;1.40;;;27.50;83.60;;;;;;5075598;28;20075;-56
2022/01/02 05:21:04;;;;;;;5.97;1.98;;;27.60;82.90;;;;;;5075489;28;20100;-55
2022/01/02 05:23:32;;;;;;;7.40;1.80;;;27.60;83.00;;;;;;5075672;28;20013;-55
2022/01/02 05:25:59;;;;;;;7.80;1.42;;;27.60;82.60;;;;;;5074935;28;20375;-56
2022/01/02 05:28:30;;;;;;;4.28;1.27;;;27.50;82.60;;;;;;5074573;28;20025;-59
2022/01/02 05:30:57;;;;;;;6.88;1.83;;;27.50;82.90;;;;;;5075217;28;20028;-56
2022/01/02 05:33:24;;;;;;;5.78;1.77;;;27.50;83.00;;;;;;5057447;28;20447;-53
2022/01/02 05:35:53;;;;;;;4.68;1.40;;;27.40;83.30;;;;;;5075136;28;20046;-54
2022/01/02 05:38:20;;;;;;;5.00;1.20;;;27.40;83.00;;;;;;5075312;28;20053;-53
2022/01/02 05:40:50;;;;;;;5.22;1.30;;;27.40;83.20;;;;;;5075021;28;20033;-59
2022/01/02 05:43:24;;;;;;;7.95;1.77;;;27.40;83.00;;;;;;5075503;28;20056;-56
2022/01/02 05:45:52;;;;;;;5.35;1.70;;;27.40;83.00;;;;;;5073891;28;20035;-54
2022/01/02 05:48:19;;;;;;;5.80;1.95;;;27.30;83.60;;;;;;5075584;28;20024;-55
2022/01/02 05:50:49;;;;;;;3.40;1.45;;;27.30;83.10;;;;;;5075222;28;20028;-60
2022/01/02 05:53:17;;;;;;;6.10;1.77;;;27.30;83.30;;;;;;5075705;28;20016;-61
2022/01/02 05:55:45;;;;;;;5.85;1.48;;;27.30;82.90;;;;;;5075346;28;20055;-60
2022/01/02 05:58:12;;;;;;;5.28;1.48;;;27.20;83.20;;;;;;5075221;28;20605;-62
2022/01/02 06:00:39;;;;;;;4.65;1.20;;;27.20;82.50;;;;;;5074957;28;20021;-62
2022/01/02 06:03:07;;;;;;;6.47;1.85;;;27.20;83.80;;;;;;5075382;28;20493;-59
2022/01/02 06:05:34;;;;;;;5.40;1.63;;;27.20;83.30;;;;;;5075453;28;20021;-58
2022/01/02 06:08:22;;;;;;;5.97;1.67;;;27.20;83.30;;;;;;5074918;28;20021;-61
2022/01/02 06:10:49;;;;;;;5.82;1.77;;;27.20;82.90;;;;;;5075975;28;20103;-59
2022/01/02 06:13:17;;;;;;;4.93;1.58;;;27.10;83.00;;;;;;5075488;28;20032;-60
2022/01/02 06:15:45;;;;;;;7.45;1.90;;;27.10;83.80;;;;;;5075483;28;20097;-59
2022/01/02 06:18:15;;;;;;;7.85;2.05;;;27.10;83.80;;;;;;5075487;28;20253;-61
2022/01/02 06:20:43;;;;;;;4.75;1.45;;;27.10;83.50;;;;;;5074439;28;20041;-58
2022/01/02 06:23:19;;;;;;;4.45;1.55;;;27.10;84.30;;;;;;5074918;28;20123;-56
2022/01/02 06:25:52;;;;;;;5.45;1.40;;;27.10;82.90;;;;;;5075401;28;20051;-61
2022/01/02 06:28:23;;;;;;;5.32;1.50;;;27.10;83.80;;;;;;5075455;28;20028;-61
2022/01/02 06:30:56;;;;;;;5.53;1.52;;;27.00;83.60;;;;;;5075231;28;20024;-62
2022/01/02 06:33:26;;;;;;;6.13;2.08;;;27.10;84.20;;;;;;5075419;28;20024;-56
2022/01/02 06:35:54;;;;;;;5.70;1.48;;;27.00;84.00;;;;;;5074412;28;20029;-62
2022/01/02 06:38:22;;;;;;;6.30;1.83;;;27.00;83.90;;;;;;5074208;28;20024;-60
2022/01/02 06:40:50;;;;;;;5.78;2.00;;;27.00;83.90;;;;;;5074242;28;20024;-62
2022/01/02 06:43:21;;;;;;;5.72;1.85;;;27.00;84.50;;;;;;5074186;28;20536;-62
2022/01/02 06:45:48;;;;;;;6.68;1.30;;;27.00;84.60;;;;;;5073957;28;20032;-56
2022/01/02 06:48:16;;;;;;;6.80;1.77;;;27.00;84.60;;;;;;5073869;28;20391;-58
2022/01/02 06:50:44;;;;;;;5.22;1.65;;;27.00;85.00;;;;;;5073992;28;20071;-60
2022/01/02 06:53:11;;;;;;;5.63;1.77;;;27.00;84.90;;;;;;5073957;28;20039;-57
2022/01/02 06:55:39;;;;;;;5.57;2.00;;;27.00;84.80;;;;;;5073661;28;20495;-58
2022/01/02 06:58:06;;;;;;;4.88;1.70;;;27.00;84.90;;;;;;5073679;28;20501;-57
2022/01/02 07:00:36;;;;;;;6.93;1.85;;;26.90;85.00;;;;;;5073782;28;20028;-51
2022/01/02 07:03:03;;;;;;;9.60;1.83;;;26.90;84.90;;;;;;5072607;28;20025;-58
2022/01/02 07:05:31;;;;;;;10.15;2.10;;;26.90;85.00;;;;;;5073531;28;20177;-61
2022/01/02 07:07:58;;;;;;;6.03;1.30;;;26.90;85.00;;;;;;5073372;28;20032;-61
2022/01/02 07:10:26;;;;;;;6.15;1.63;;;26.80;85.40;;;;;;5073556;28;20479;-60
2022/01/02 07:12:54;;;;;;;4.20;1.80;;;26.80;85.40;;;;;;5072360;28;20471;-58
2022/01/02 07:15:21;;;;;;;7.10;1.70;;;26.80;85.60;;;;;;5073312;28;20040;-60
2022/01/02 07:17:52;;;;;;;4.88;1.73;;;26.80;85.60;;;;;;5073499;28;20116;-56
2022/01/02 07:20:19;;;;;;;7.65;2.53;;;26.80;85.80;;;;;;5073774;28;20035;-59
2022/01/02 07:22:49;;;;;;;8.55;1.52;;;26.70;85.90;;;;;;5073833;28;20460;-57
2022/01/02 07:25:17;;;;;;;5.30;2.03;;;26.70;86.00;;;;;;5073502;28;20024;-56
2022/01/02 07:27:44;;;;;;;6.30;1.80;;;26.60;86.60;;;;;;5073389;28;20033;-60
2022/01/02 07:30:12;;;;;;;10.85;2.42;;;26.60;86.10;;;;;;5073112;28;20028;-55
2022/01/02 07:32:39;;;;;;;5.97;1.45;;;26.60;86.40;;;;;;5073302;28;20024;-58
2022/01/02 07:35:08;;;;;;;6.15;1.73;;;26.50;86.50;;;;;;5073511;28;20044;-56
2022/01/02 07:37:38;;;;;;;8.77;2.20;;;26.50;86.70;;;;;;5073151;28;20055;-61
2022/01/02 07:40:10;;;;;;;5.43;1.80;;;26.50;87.00;;;;;;5072993;28;20032;-61
2022/01/02 07:42:37;;;;;;;7.28;2.75;;;26.50;87.20;;;;;;5073162;28;20056;-59
2022/01/02 07:45:05;;;;;;;7.15;2.25;;;26.50;87.30;;;;;;5073008;28;20076;-57
2022/01/02 07:47:33;;;;;;;6.00;2.03;;;26.40;87.50;;;;;;5073165;28;20104;-61
2022/01/02 07:50:07;;;;;;;7.20;1.77;;;26.40;87.90;;;;;;5071093;28;20032;-60
2022/01/02 07:52:47;;;;;;;6.15;1.92;;;26.30;88.20;;;;;;5072972;28;20031;-58
2022/01/02 07:55:14;;;;;;;13.02;2.42;;;26.30;88.60;;;;;;5072607;28;20044;-60
2022/01/02 07:57:42;;;;;;;11.35;3.28;;;26.30;88.40;;;;;;5073177;28;20050;-60
2022/01/02 08:00:10;;;;;;;16.27;4.25;;;26.30;88.80;;;;;;5073154;28;20028;-60
2022/01/02 08:02:37;;;;;;;21.52;4.10;;;26.30;88.60;;;;;;5073115;28;20029;-59
2022/01/02 08:05:10;;;;;;;18.73;3.58;;;26.20;88.50;;;;;;5073348;28;20470;-62
2022/01/02 08:07:46;;;;;;;14.45;3.83;;;26.30;88.70;;;;;;5073028;28;20040;-55
2022/01/02 08:10:16;;;;;;;20.95;2.85;;;26.20;88.00;;;;;;5072568;28;20028;-50
2022/01/02 08:12:44;;;;;;;14.55;2.75;;;26.10;87.50;;;;;;5072827;28;20029;-52
2022/01/02 08:15:11;;;;;;;12.25;2.70;;;25.90;87.00;;;;;;5072521;28;20058;-55
2022/01/02 08:17:39;;;;;;;17.85;4.20;;;25.90;87.30;;;;;;5072651;28;20139;-55
2022/01/02 08:20:07;;;;;;;18.30;3.70;;;25.80;88.00;;;;;;5072563;28;20103;-54
2022/01/02 08:22:34;;;;;;;13.07;3.35;;;25.80;88.40;;;;;;5073016;28;20063;-52
2022/01/02 08:25:02;;;;;;;16.20;3.95;;;25.80;88.80;;;;;;5072820;28;20425;-52
2022/01/02 08:27:30;;;;;;;18.42;4.38;;;25.70;88.70;;;;;;5072442;28;20373;-57
2022/01/02 08:29:57;;;;;;;22.50;4.32;;;25.70;88.90;;;;;;5072055;28;20044;-53
2022/01/02 08:32:25;;;;;;;12.52;3.20;;;25.70;88.80;;;;;;5072525;28;20425;-52
2022/01/02 08:34:52;;;;;;;13.32;3.03;;;25.60;88.90;;;;;;5072571;28;20042;-53
2022/01/02 08:37:20;;;;;;;14.77;2.97;;;25.60;89.10;;;;;;5071400;28;20095;-56
2022/01/02 08:39:47;;;;;;;10.40;2.47;;;25.60;89.50;;;;;;5072423;28;20070;-60
2022/01/02 08:42:16;;;;;;;15.88;2.90;;;25.60;89.40;;;;;;5072017;28;20021;-56
2022/01/02 08:44:44;;;;;;;11.55;2.20;;;25.60;89.30;;;;;;5072315;28;20031;-57
2022/01/02 08:47:12;;;;;;;10.23;2.90;;;25.60;89.30;;;;;;5072615;28;20439;-58
2022/01/02 08:49:39;;;;;;;8.82;2.20;;;25.70;89.40;;;;;;5072200;28;20028;-59
2022/01/02 08:52:07;;;;;;;5.85;2.40;;;25.60;89.30;;;;;;5072221;28;20108;-60
2022/01/02 08:54:34;;;;;;;9.90;2.50;;;25.60;89.30;;;;;;5071734;28;20101;-59
2022/01/02 08:57:05;;;;;;;9.60;2.45;;;25.70;89.30;;;;;;5072189;28;20107;-59
2022/01/02 08:59:35;;;;;;;4.55;1.48;;;25.60;89.30;;;;;;5072270;28;20027;-60
2022/01/02 09:02:02;;;;;;;8.90;2.67;;;25.60;89.30;;;;;;5073262;28;20040;-59
2022/01/02 09:04:30;;;;;;;7.20;2.38;;;25.60;89.30;;;;;;5075850;28;20039;-57
2022/01/02 09:07:01;;;;;;;8.48;2.38;;;25.60;89.30;;;;;;5075890;28;20021;-57
2022/01/02 09:09:29;;;;;;;8.82;2.22;;;25.60;89.40;;;;;;5075643;28;20028;-61
2022/01/02 09:11:59;;;;;;;6.90;1.90;;;25.60;89.40;;;;;;5075654;28;20029;-59
2022/01/02 09:14:27;;;;;;;6.00;2.55;;;25.60;89.40;;;;;;5075476;28;20151;-59
2022/01/02 09:16:54;;;;;;;7.38;2.33;;;25.60;89.50;;;;;;5075635;28;20029;-59
2022/01/02 09:19:22;;;;;;;8.32;2.22;;;25.50;89.50;;;;;;5075671;28;20028;-58
2022/01/02 09:21:49;;;;;;;5.40;2.03;;;25.50;89.60;;;;;;5075328;28;20051;-57
2022/01/02 09:24:16;;;;;;;8.15;2.10;;;25.50;89.70;;;;;;5074243;28;20379;-57
2022/01/02 09:26:44;;;;;;;7.72;2.13;;;25.50;89.80;;;;;;5075556;28;20112;-60
2022/01/02 09:29:11;;;;;;;8.35;2.50;;;25.50;89.90;;;;;;5075346;28;20033;-60
2022/01/02 09:31:38;;;;;;;10.13;2.17;;;25.50;89.80;;;;;;5075661;28;20050;-56
2022/01/02 09:34:06;;;;;;;6.82;1.83;;;25.50;90.00;;;;;;5075287;28;20086;-60
2022/01/02 09:36:33;;;;;;;4.85;2.13;;;25.50;89.80;;;;;;5075667;28;20048;-58
2022/01/02 09:39:01;;;;;;;8.05;2.13;;;25.40;90.10;;;;;;5075541;28;20041;-58
2022/01/02 09:41:29;;;;;;;5.82;1.52;;;25.40;90.00;;;;;;5075529;28;20036;-59
2022/01/02 09:44:00;;;;;;;10.20;2.83;;;25.40;90.10;;;;;;5073759;28;20112;-57
2022/01/02 09:46:29;;;;;;;10.77;2.58;;;25.40;90.40;;;;;;5075190;28;20040;-57
2022/01/02 09:48:56;;;;;;;10.23;2.67;;;25.30;90.20;;;;;;5074977;28;20523;-57
2022/01/02 09:51:26;;;;;;;8.05;2.20;;;25.30;90.20;;;;;;5075204;28;20051;-53
2022/01/02 09:53:56;;;;;;;9.80;2.58;;;25.40;90.30;;;;;;5073236;28;20079;-59
2022/01/02 09:56:24;;;;;;;7.05;2.30;;;25.30;90.20;;;;;;5075129;28;20020;-59
2022/01/02 09:58:52;;;;;;;8.10;2.03;;;25.30;90.20;;;;;;5074860;28;20025;-59
2022/01/02 10:01:25;;;;;;;4.60;1.67;;;25.30;90.30;;;;;;5074932;28;20126;-63
2022/01/02 10:03:56;;;;;;;8.13;2.03;;;25.30;90.30;;;;;;5074607;28;20428;-55
2022/01/02 10:06:38;;;;;;;8.52;2.05;;;25.20;90.40;;;;;;5074463;28;20025;-58
2022/01/02 10:09:09;;;;;;;8.20;2.55;;;25.20;90.40;;;;;;5075012;28;20042;-59
2022/01/02 10:11:40;;;;;;;5.40;1.60;;;25.20;90.50;;;;;;5073249;28;20016;-61
2022/01/02 10:14:10;;;;;;;8.95;1.70;;;25.20;90.50;;;;;;5073726;28;20040;-57
2022/01/02 10:16:40;;;;;;;8.45;2.20;;;25.20;90.60;;;;;;5074508;28;20112;-58
2022/01/02 10:19:32;;;;;;;6.35;2.38;;;25.20;90.60;;;;;;5074805;28;20024;-59
2022/01/02 10:22:00;;;;;;;;;;;25.10;90.60;;;;;;5075042;28;20024;-57
2022/01/02 10:24:32;;;;;;;6.18;2.10;;;25.10;90.60;;;;;;5074210;28;19987;-60
2022/01/02 10:27:11;;;;;;;;;;;25.10;90.60;;;;;;5075146;28;20028;-60
2022/01/02 10:29:51;;;;;;;10.77;2.15;;;25.10;90.70;;;;;;5072830;28;20310;-60
2022/01/02 10:32:24;;;;;;;9.63;2.63;;;25.10;90.70;;;;;;5074346;28;20028;-60
2022/01/02 10:34:52;;;;;;;7.57;1.90;;;25.10;90.80;;;;;;5074373;28;20471;-51
2022/01/02 10:37:27;;;;;;;8.90;2.38;;;25.10;90.80;;;;;;5074246;28;20359;-60
2022/01/02 10:39:54;;;;;;;6.40;1.92;;;25.10;90.80;;;;;;5072942;28;20493;-59
2022/01/02 10:42:22;;;;;;;7.43;2.17;;;25.10;90.90;;;;;;5074003;28;20024;-58
2022/01/02 10:44:49;;;;;;;7.63;2.45;;;25.00;90.90;;;;;;5074246;28;20033;-62
2022/01/02 10:47:20;;;;;;;9.02;2.40;;;25.00;90.90;;;;;;5073797;28;20079;-56
2022/01/02 10:50:08;;;;;;;8.57;2.50;;;25.00;90.90;;;;;;5073922;28;20028;-59
2022/01/02 10:52:39;;;;;;;5.97;1.90;;;25.00;91.00;;;;;;5074041;28;20036;-59
2022/01/02 10:55:17;;;;;;;7.75;2.90;;;25.00;91.00;;;;;;5073811;28;20040;-60
2022/01/02 10:57:47;;;;;;;7.53;2.22;;;25.00;90.80;;;;;;5073736;28;20056;-57
2022/01/02 11:00:23;;;;;;;10.13;2.90;;;25.00;91.00;;;;;;5072106;28;20383;-59
2022/01/02 11:02:51;;;;;;;5.85;2.03;;;24.90;91.00;;;;;;5072565;28;20059;-61
2022/01/02 11:05:20;;;;;;;5.93;2.38;;;25.00;91.00;;;;;;5073902;28;20459;-59
2022/01/02 11:07:49;;;;;;;7.70;2.15;;;25.00;91.00;;;;;;5073724;28;20086;-59
2022/01/02 11:10:21;;;;;;;6.03;2.20;;;24.90;91.00;;;;;;5074176;28;20032;-49
2022/01/02 11:12:50;;;;;;;7.50;2.33;;;24.90;90.90;;;;;;5073912;28;20203;-60
2022/01/02 11:15:25;;;;;;;6.88;2.28;;;24.90;91.10;;;;;;5073705;28;20328;-59
2022/01/02 11:17:53;;;;;;;7.72;2.33;;;24.90;91.00;;;;;;5073208;28;20494;-59
2022/01/02 11:20:30;;;;;;;7.85;1.60;;;24.90;91.00;;;;;;5073357;28;20073;-59
2022/01/02 11:23:00;;;;;;;9.48;2.17;;;24.90;91.20;;;;;;5073312;28;20436;-59
2022/01/02 11:26:01;;;;;;;6.63;2.20;;;24.90;91.20;;;;;;5072807;28;20016;-58
2022/01/02 11:28:37;;;;;;;5.47;2.05;;;24.90;91.10;;;;;;5071895;28;20094;-55
2022/01/02 11:31:07;;;;;;;8.82;2.65;;;24.90;91.10;;;;;;5073218;28;20459;-53
2022/01/02 11:33:43;;;;;;;9.70;2.55;;;24.90;91.20;;;;;;5073002;28;20131;-57
2022/01/02 11:36:35;;;;;;;7.15;1.95;;;24.90;91.20;;;;;;5073043;28;20094;-58
2022/01/02 11:39:06;;;;;;;9.60;2.17;;;24.90;91.20;;;;;;5073452;28;20457;-56
2022/01/02 11:41:41;;;;;;;6.05;1.88;;;24.90;91.20;;;;;;5072176;28;20459;-58
2022/01/02 11:44:14;;;;;;;8.38;2.10;;;24.80;91.20;;;;;;5073110;28;20040;-59
2022/01/02 11:46:52;;;;;;;6.57;1.83;;;24.90;91.20;;;;;;5073427;28;20028;-59
2022/01/02 11:49:22;;;;;;;6.40;1.88;;;24.90;91.30;;;;;;5071986;28;20025;-60
2022/01/02 11:51:57;;;;;;;7.13;2.22;;;24.80;91.10;;;;;;5073103;28;20459;-59
2022/01/02 11:57:23;;;;;;;8.07;2.47;;;24.80;91.30;;;;;;5072845;28;20423;-60
2022/01/02 11:59:52;;;;;;;7.40;2.20;;;24.80;91.30;;;;;;5072949;28;20042;-60
2022/01/02 12:02:19;;;;;;;5.65;1.40;;;24.70;91.20;;;;;;5072975;28;20394;-58
2022/01/02 12:07:35;;;;;;;5.15;2.00;;;24.80;91.30;;;;;;5072910;28;20506;-58
2022/01/02 12:10:20;;;;;;;7.70;2.25;;;24.80;91.30;;;;;;5072840;28;20024;-55
2022/01/02 12:13:23;;;;;;;7.95;2.22;;;24.70;91.50;;;;;;5072651;28;20049;-57
2022/01/02 12:15:51;;;;;;;6.40;1.55;;;24.80;91.30;;;;;;5072911;28;20108;-60
2022/01/02 12:18:28;;;;;;;6.88;2.05;;;24.70;91.30;;;;;;5073007;28;20022;-52
2022/01/02 12:21:00;;;;;;;5.82;2.35;;;24.70;91.30;;;;;;5072863;28;20024;-56
2022/01/02 12:23:34;;;;;;;8.45;2.28;;;24.70;91.40;;;;;;5072575;28;20025;-59
2022/01/02 12:26:04;;;;;;;7.32;2.00;;;24.70;91.40;;;;;;5072273;28;20482;-54
2022/01/02 12:28:39;;;;;;;5.28;1.48;;;24.70;91.40;;;;;;5072624;28;20016;-58
2022/01/02 12:31:08;;;;;;;4.30;1.73;;;24.70;91.30;;;;;;5072599;28;20421;-57
2022/01/02 12:33:36;;;;;;;6.85;1.63;;;24.70;91.30;;;;;;5072573;28;20031;-58
2022/01/02 12:36:14;;;;;;;7.25;2.22;;;24.70;91.30;;;;;;5055824;28;20033;-59
2022/01/02 12:38:56;;;;;;;8.20;2.10;;;24.70;91.40;;;;;;5075752;28;20025;-59
2022/01/02 12:41:24;;;;;;;;;;;24.70;91.40;;;;;;5076990;28;20035;-61
2022/01/02 12:44:09;;;;;;;8.32;1.95;;;24.70;91.40;;;;;;5075865;28;19905;-56
2022/01/02 12:46:43;;;;;;;9.65;2.42;;;24.70;91.40;;;;;;5076600;28;20063;-58
2022/01/02 12:49:14;;;;;;;5.95;1.90;;;24.70;91.40;;;;;;5076258;28;20471;-59
2022/01/02 12:51:46;;;;;;;6.35;1.67;;;24.70;91.40;;;;;;5076415;28;20036;-59
2022/01/02 12:54:16;;;;;;;8.45;2.05;;;24.70;91.50;;;;;;5075848;28;20399;-59
2022/01/02 12:56:50;;;;;;;4.32;2.03;;;24.70;91.50;;;;;;5076028;28;20033;-61
2022/01/02 12:59:24;;;;;;;5.88;1.73;;;24.70;91.50;;;;;;5076481;28;20024;-60
2022/01/02 13:01:58;;;;;;;5.55;1.85;;;24.70;91.40;;;;;;5076367;28;20391;-59
2022/01/02 13:04:29;;;;;;;4.85;1.75;;;24.70;91.40;;;;;;5074706;28;20028;-57
2022/01/02 13:06:59;;;;;;;6.20;1.50;;;24.70;91.40;;;;;;5076115;28;20036;-59
2022/01/02 13:09:32;;;;;;;5.32;1.98;;;24.60;91.40;;;;;;5076073;28;20031;-58
2022/01/02 13:12:02;;;;;;;5.78;2.05;;;24.60;91.40;;;;;;5075844;28;20031;-60
2022/01/02 13:14:41;;;;;;;5.75;1.88;;;24.60;91.40;;;;;;5076067;28;20036;-58